createdAt,value
2017-09-15T00:00:30.579Z,29.33
2017-09-15T00:02:58.195Z,19.03
2017-09-15T00:05:25.862Z,24.37
2017-09-15T00:07:53.478Z,21.77
2017-09-15T00:10:21.066Z,18.83
2017-09-15T00:12:48.682Z,15.87
2017-09-15T00:15:16.276Z,17.70
2017-09-15T00:17:43.872Z,23.87
2017-09-15T00:20:11.462Z,22.43
2017-09-15T00:22:39.067Z,18.17
2017-09-15T00:25:06.634Z,20.13
2017-09-15T00:27:34.256Z,21.30
2017-09-15T00:30:01.856Z,23.20
2017-09-15T00:32:29.454Z,18.70
2017-09-15T00:34:57.058Z,26.30
2017-09-15T00:37:25.421Z,26.57
2017-09-15T00:39:53.000Z,23.30
2017-09-15T00:42:21.367Z,30.37
2017-09-15T00:44:48.947Z,23.20
2017-09-15T00:47:17.320Z,23.93
2017-09-15T00:49:45.678Z,23.93
2017-09-15T00:52:13.265Z,23.47
2017-09-15T00:54:41.623Z,28.37
2017-09-15T00:57:09.206Z,24.77
2017-09-15T00:59:37.569Z,30.53
2017-09-15T01:02:05.924Z,23.77
2017-09-15T01:04:33.514Z,24.40
2017-09-15T01:07:01.855Z,26.40
2017-09-15T01:09:29.432Z,28.13
2017-09-15T01:11:57.042Z,24.20
2017-09-15T01:14:24.615Z,21.50
2017-09-15T01:16:52.210Z,23.73
2017-09-15T01:19:19.781Z,23.93
2017-09-15T01:21:47.386Z,25.20
2017-09-15T01:24:15.012Z,26.73
2017-09-15T01:26:42.586Z,22.93
2017-09-15T01:29:10.938Z,25.73
2017-09-15T01:31:38.536Z,22.37
2017-09-15T01:34:06.947Z,23.80
2017-09-15T01:36:34.606Z,20.90
2017-09-15T01:39:02.182Z,27.93
2017-09-15T01:41:29.791Z,19.37
2017-09-15T01:43:58.119Z,21.47
2017-09-15T01:46:26.562Z,24.53
2017-09-15T01:48:54.898Z,20.30
2017-09-15T01:51:22.483Z,19.33
2017-09-15T01:53:50.841Z,22.17
2017-09-15T01:56:18.411Z,20.17
2017-09-15T01:58:46.014Z,21.40
2017-09-15T02:01:13.618Z,20.20
2017-09-15T02:03:41.278Z,26.73
2017-09-15T02:06:08.875Z,22.67
2017-09-15T02:08:37.213Z,25.67
2017-09-15T02:11:04.812Z,18.20
2017-09-15T02:13:33.145Z,18.10
2017-09-15T02:16:06.687Z,16.97
2017-09-15T02:18:34.355Z,20.87
2017-09-15T02:21:02.675Z,22.20
2017-09-15T02:23:30.274Z,22.10
2017-09-15T02:25:57.841Z,18.77
2017-09-15T02:28:25.426Z,18.23
2017-09-15T02:30:53.765Z,17.83
2017-09-15T02:33:21.415Z,20.43
2017-09-15T02:35:48.989Z,23.23
2017-09-15T02:38:16.604Z,22.10
2017-09-15T02:40:44.199Z,23.00
2017-09-15T02:43:11.796Z,15.47
2017-09-15T02:45:39.378Z,16.03
2017-09-15T02:48:07.720Z,19.20
2017-09-15T02:50:35.287Z,16.97
2017-09-15T02:53:02.898Z,20.83
2017-09-15T02:55:30.485Z,19.60
2017-09-15T02:57:58.075Z,16.20
2017-09-15T03:00:25.640Z,17.53
2017-09-15T03:02:53.226Z,18.63
2017-09-15T03:05:20.791Z,14.00
2017-09-15T03:07:48.378Z,21.77
2017-09-15T03:10:15.954Z,16.13
2017-09-15T03:12:43.538Z,15.47
2017-09-15T03:15:11.116Z,15.70
2017-09-15T03:17:39.449Z,16.37
2017-09-15T03:20:07.043Z,16.20
2017-09-15T03:22:34.593Z,11.93
2017-09-15T03:25:02.168Z,15.03
2017-09-15T03:27:29.747Z,17.77
2017-09-15T03:29:58.098Z,15.77
2017-09-15T03:32:25.682Z,13.93
2017-09-15T03:34:54.069Z,16.40
2017-09-15T03:37:22.415Z,16.10
2017-09-15T03:39:50.010Z,22.60
2017-09-15T03:42:18.358Z,19.63
2017-09-15T03:44:45.948Z,18.37
2017-09-15T03:47:14.286Z,19.80
2017-09-15T03:49:41.846Z,17.97
2017-09-15T03:52:09.484Z,19.33
2017-09-15T03:54:37.056Z,19.03
2017-09-15T03:57:04.650Z,19.00
2017-09-15T03:59:32.242Z,21.07
2017-09-15T04:01:59.802Z,19.43
2017-09-15T04:04:27.419Z,24.20
2017-09-15T04:06:55.029Z,26.90
2017-09-15T04:09:22.655Z,25.30
2017-09-15T04:11:50.238Z,21.27
2017-09-15T04:14:18.566Z,29.40
2017-09-15T04:16:46.172Z,24.70
2017-09-15T04:19:14.538Z,25.27
2017-09-15T04:21:42.123Z,24.37
2017-09-15T04:24:10.454Z,27.13
2017-09-15T04:26:38.033Z,36.07
2017-09-15T04:29:05.604Z,28.17
2017-09-15T04:31:33.955Z,33.37
2017-09-15T04:34:02.303Z,31.27
2017-09-15T04:36:29.899Z,27.23
2017-09-15T04:38:57.493Z,28.17
2017-09-15T04:41:25.823Z,30.50
2017-09-15T04:43:53.406Z,28.17
2017-09-15T04:46:20.981Z,32.87
2017-09-15T04:48:48.584Z,28.33
2017-09-15T04:51:16.155Z,36.17
2017-09-15T04:53:43.747Z,33.50
2017-09-15T04:56:11.325Z,34.03
2017-09-15T04:58:38.902Z,44.73
2017-09-15T05:01:07.283Z,32.37
2017-09-15T05:03:35.637Z,37.20
2017-09-15T05:06:03.326Z,35.77
2017-09-15T05:08:31.677Z,34.73
2017-09-15T05:10:59.259Z,36.10
2017-09-15T05:13:27.627Z,34.67
2017-09-15T05:15:55.205Z,35.00
2017-09-15T05:18:23.561Z,33.40
2017-09-15T05:20:51.150Z,33.33
2017-09-15T05:23:19.511Z,39.63
2017-09-15T05:25:47.849Z,33.03
2017-09-15T05:28:15.492Z,31.53
2017-09-15T05:30:43.066Z,30.67
2017-09-15T05:33:10.648Z,31.00
2017-09-15T05:35:38.238Z,35.10
2017-09-15T05:38:06.597Z,30.80
2017-09-15T05:40:34.178Z,30.77
2017-09-15T05:43:02.531Z,32.80
2017-09-15T05:45:30.143Z,36.50
2017-09-15T05:47:58.454Z,34.00
2017-09-15T05:50:26.053Z,30.80
2017-09-15T05:52:54.428Z,35.17
2017-09-15T05:55:22.014Z,33.43
2017-09-15T05:57:49.620Z,35.30
2017-09-15T06:00:17.220Z,32.50
2017-09-15T06:02:44.784Z,29.83
2017-09-15T06:05:13.152Z,31.77
2017-09-15T06:07:40.731Z,32.17
2017-09-15T06:10:09.095Z,34.57
2017-09-15T06:12:36.679Z,30.50
2017-09-15T06:15:05.018Z,32.20
2017-09-15T06:17:32.615Z,27.53
2017-09-15T06:20:00.956Z,31.60
2017-09-15T06:22:28.558Z,30.33
2017-09-15T06:24:56.899Z,30.60
2017-09-15T06:27:24.505Z,29.87
2017-09-15T06:29:52.073Z,32.90
2017-09-15T06:32:19.671Z,32.20
2017-09-15T06:34:47.382Z,34.10
2017-09-15T06:37:15.748Z,33.37
2017-09-15T06:39:43.326Z,40.70
2017-09-15T06:42:11.676Z,29.17
2017-09-15T06:44:39.311Z,39.27
2017-09-15T06:47:06.909Z,35.03
2017-09-15T06:49:34.524Z,27.50
2017-09-15T06:52:02.943Z,29.77
2017-09-15T06:54:30.518Z,31.23
2017-09-15T06:56:58.855Z,24.33
2017-09-15T06:59:26.459Z,25.00
2017-09-15T07:01:54.846Z,31.60
2017-09-15T07:04:23.256Z,23.53
2017-09-15T07:06:50.821Z,23.00
2017-09-15T07:09:18.420Z,29.40
2017-09-15T07:11:46.014Z,24.40
2017-09-15T07:14:14.363Z,28.13
2017-09-15T07:16:41.956Z,27.60
2017-09-15T07:19:10.310Z,26.20
2017-09-15T07:21:37.919Z,29.33
2017-09-15T07:24:05.498Z,23.00
2017-09-15T07:26:33.066Z,29.37
2017-09-15T07:29:00.987Z,29.23
2017-09-15T07:31:28.607Z,27.70
2017-09-15T07:33:56.208Z,20.40
2017-09-15T07:36:24.652Z,25.57
2017-09-15T07:38:52.253Z,20.87
2017-09-15T07:41:20.635Z,24.70
2017-09-15T07:43:48.978Z,24.10
2017-09-15T07:46:16.662Z,19.03
2017-09-15T07:48:45.011Z,23.53
2017-09-15T07:51:12.630Z,24.40
2017-09-15T07:53:40.240Z,16.13
2017-09-15T07:56:07.842Z,13.43
2017-09-15T07:58:36.180Z,19.40
2017-09-15T08:01:03.782Z,15.53
2017-09-15T08:03:32.157Z,16.63
2017-09-15T08:06:00.547Z,17.30
2017-09-15T08:08:28.124Z,14.10
2017-09-15T08:10:55.708Z,13.27
2017-09-15T08:13:23.290Z,11.10
2017-09-15T08:15:50.988Z,13.03
2017-09-15T08:18:19.434Z,14.60
2017-09-15T08:20:47.004Z,14.23
2017-09-15T08:23:14.581Z,16.33
2017-09-15T08:25:42.949Z,13.00
2017-09-15T08:28:11.434Z,16.67
2017-09-15T08:30:39.050Z,13.13
2017-09-15T08:33:06.606Z,17.63
2017-09-15T08:35:34.202Z,18.67
2017-09-15T08:38:01.782Z,15.57
2017-09-15T08:40:30.154Z,13.27
2017-09-15T08:42:58.505Z,14.93
2017-09-15T08:45:26.114Z,18.33
2017-09-15T08:47:53.698Z,14.40
2017-09-15T08:50:22.091Z,13.67
2017-09-15T08:52:49.674Z,9.80
2017-09-15T08:55:17.299Z,10.37
2017-09-15T08:57:44.934Z,11.07
2017-09-15T09:00:13.276Z,9.47
2017-09-15T09:02:40.895Z,11.20
2017-09-15T09:05:08.461Z,8.90
2017-09-15T09:07:36.042Z,9.90
2017-09-15T09:10:03.642Z,11.10
2017-09-15T09:12:31.245Z,9.60
2017-09-15T09:14:58.866Z,10.20
2017-09-15T09:17:26.471Z,8.53
2017-09-15T09:19:54.066Z,7.13
2017-09-15T09:22:21.639Z,9.43
2017-09-15T09:24:49.214Z,8.60
2017-09-15T09:27:17.566Z,10.37
2017-09-15T09:29:45.165Z,10.50
2017-09-15T09:32:13.557Z,10.00
2017-09-15T09:34:43.295Z,9.57
2017-09-15T09:37:10.899Z,7.00
2017-09-15T09:39:38.467Z,12.83
2017-09-15T09:42:06.830Z,9.83
2017-09-15T09:44:34.417Z,10.13
2017-09-15T09:47:02.799Z,8.70
2017-09-15T09:49:31.162Z,9.03
2017-09-15T09:51:58.731Z,8.73
2017-09-15T09:54:26.356Z,6.00
2017-09-15T09:56:53.910Z,7.87
2017-09-15T09:59:21.518Z,8.83
2017-09-15T10:01:49.853Z,6.27
2017-09-15T10:04:17.459Z,9.23
2017-09-15T10:06:45.824Z,10.87
2017-09-15T10:09:13.441Z,9.40
2017-09-15T10:11:42.713Z,7.00
2017-09-15T10:14:10.307Z,6.20
2017-09-15T10:16:37.897Z,6.47
2017-09-15T10:19:06.304Z,7.83
2017-09-15T10:21:34.664Z,5.33
2017-09-15T10:24:02.236Z,8.37
2017-09-15T10:26:29.800Z,4.57
2017-09-15T10:28:58.152Z,8.20
2017-09-15T10:31:25.720Z,10.13
2017-09-15T10:33:53.326Z,5.00
2017-09-15T10:36:20.952Z,9.63
2017-09-15T10:38:48.534Z,7.70
2017-09-15T10:41:16.916Z,4.83
2017-09-15T10:43:45.274Z,8.17
2017-09-15T10:46:12.841Z,6.63
2017-09-15T10:48:41.235Z,5.13
2017-09-15T10:51:09.591Z,3.80
2017-09-15T10:53:37.167Z,3.13
2017-09-15T10:56:05.515Z,4.20
2017-09-15T10:58:38.614Z,4.60
2017-09-15T11:01:06.226Z,6.90
2017-09-15T11:03:33.793Z,5.20
2017-09-15T11:06:02.140Z,5.83
2017-09-15T11:08:30.497Z,5.80
2017-09-15T11:10:58.133Z,5.93
2017-09-15T11:13:25.803Z,7.17
2017-09-15T11:15:53.388Z,6.50
2017-09-15T11:18:20.986Z,6.40
2017-09-15T11:20:48.970Z,5.50
2017-09-15T11:23:16.550Z,7.40
2017-09-15T11:25:44.269Z,5.30
2017-09-15T11:28:11.900Z,6.90
2017-09-15T11:30:39.544Z,9.80
2017-09-15T11:33:07.129Z,11.07
2017-09-15T11:35:34.733Z,9.27
2017-09-15T11:38:02.383Z,7.40
2017-09-15T11:40:29.983Z,6.17
2017-09-15T11:42:58.517Z,8.83
2017-09-15T11:45:26.938Z,5.73
2017-09-15T11:47:54.594Z,8.83
2017-09-15T11:50:22.169Z,5.20
2017-09-15T11:52:49.826Z,4.77
2017-09-15T11:55:18.339Z,3.43
2017-09-15T11:57:46.073Z,4.60
2017-09-15T12:00:13.782Z,6.53
2017-09-15T12:02:41.829Z,3.70
2017-09-15T12:05:10.207Z,5.40
2017-09-15T12:07:37.787Z,3.93
2017-09-15T12:10:05.409Z,4.40
2017-09-15T12:12:33.047Z,6.10
2017-09-15T12:15:00.630Z,4.23
2017-09-15T12:17:28.205Z,6.40
2017-09-15T12:19:55.808Z,6.70
2017-09-15T12:22:24.151Z,4.17
2017-09-15T12:24:51.767Z,5.00
2017-09-15T12:27:20.164Z,4.50
2017-09-15T12:29:47.782Z,4.80
2017-09-15T12:32:15.780Z,4.73
2017-09-15T12:34:44.172Z,6.73
2017-09-15T12:37:11.769Z,4.87
2017-09-15T12:39:39.397Z,7.50
2017-09-15T12:42:06.969Z,4.30
2017-09-15T12:44:34.581Z,3.67
2017-09-15T12:47:02.162Z,6.43
2017-09-15T12:49:30.527Z,4.33
2017-09-15T12:51:59.108Z,3.10
2017-09-15T12:54:27.271Z,4.37
2017-09-15T12:56:54.854Z,5.87
2017-09-15T12:59:23.219Z,3.63
2017-09-15T13:01:50.856Z,3.60
2017-09-15T13:04:18.494Z,4.73
2017-09-15T13:06:46.070Z,3.27
2017-09-15T13:09:14.010Z,5.63
2017-09-15T13:11:42.291Z,4.47
2017-09-15T13:14:09.932Z,3.53
2017-09-15T13:16:37.579Z,3.90
2017-09-15T13:19:05.484Z,4.63
2017-09-15T13:21:33.287Z,9.73
2017-09-15T13:24:00.874Z,3.70
2017-09-15T13:26:28.472Z,3.33
2017-09-15T13:28:56.116Z,4.20
2017-09-15T13:31:24.463Z,3.70
2017-09-15T13:33:52.058Z,5.20
2017-09-15T13:36:20.391Z,5.73
2017-09-15T13:38:47.992Z,3.80
2017-09-15T13:41:16.331Z,2.80
2017-09-15T13:43:43.905Z,3.10
2017-09-15T13:46:11.495Z,3.67
2017-09-15T13:48:39.830Z,2.40
2017-09-15T13:51:07.443Z,2.37
2017-09-15T13:53:35.773Z,2.50
2017-09-15T13:56:03.462Z,2.63
2017-09-15T13:58:31.055Z,2.60
2017-09-15T14:00:58.619Z,3.20
2017-09-15T14:03:26.221Z,7.13
2017-09-15T14:05:54.721Z,2.63
2017-09-15T14:08:22.301Z,2.67
2017-09-15T14:10:50.650Z,5.13
2017-09-15T14:13:18.219Z,4.90
2017-09-15T14:15:46.627Z,2.10
2017-09-15T14:18:15.000Z,3.03
2017-09-15T14:20:43.329Z,3.83
2017-09-15T14:23:10.928Z,3.07
2017-09-15T14:25:38.576Z,5.80
2017-09-15T14:28:06.134Z,2.47
2017-09-15T14:30:33.759Z,3.50
2017-09-15T14:33:01.356Z,2.73
2017-09-15T14:35:28.999Z,5.00
2017-09-15T14:37:56.584Z,2.70
2017-09-15T14:40:24.154Z,3.40
2017-09-15T14:42:51.742Z,3.93
2017-09-15T14:45:19.336Z,2.77
2017-09-15T14:47:46.907Z,3.93
2017-09-15T14:50:14.526Z,4.13
2017-09-15T14:52:42.088Z,3.57
2017-09-15T14:55:10.482Z,4.07
2017-09-15T14:57:38.074Z,2.93
2017-09-15T15:00:05.659Z,7.87
2017-09-15T15:02:33.247Z,4.97
2017-09-15T15:05:01.632Z,3.93
2017-09-15T15:07:29.987Z,4.60
2017-09-15T15:09:57.567Z,7.70
2017-09-15T15:12:25.949Z,3.07
2017-09-15T15:14:54.335Z,3.30
2017-09-15T15:17:21.902Z,4.70
2017-09-15T15:19:49.468Z,6.70
2017-09-15T15:22:17.194Z,5.13
2017-09-15T15:24:45.049Z,3.00
2017-09-15T15:27:12.895Z,4.97
2017-09-15T15:29:40.806Z,3.50
2017-09-15T15:32:09.341Z,4.87
2017-09-15T15:34:37.190Z,8.63
2017-09-15T15:37:04.860Z,6.43
2017-09-15T15:39:32.449Z,5.80
2017-09-15T15:42:00.036Z,3.00
2017-09-15T15:44:27.643Z,2.40
2017-09-15T15:46:56.007Z,4.00
2017-09-15T15:49:23.615Z,5.77
2017-09-15T15:51:51.213Z,2.30
2017-09-15T15:54:19.562Z,5.27
2017-09-15T15:56:47.244Z,3.43
2017-09-15T15:59:15.783Z,3.20
2017-09-15T16:01:43.433Z,2.30
2017-09-15T16:04:11.816Z,7.03
2017-09-15T16:06:39.387Z,5.67
2017-09-15T16:09:06.995Z,4.77
2017-09-15T16:11:35.372Z,3.30
2017-09-15T16:14:03.674Z,4.60
2017-09-15T16:16:31.308Z,3.73
2017-09-15T16:18:58.891Z,3.97
2017-09-15T16:21:27.251Z,5.00
2017-09-15T16:23:54.958Z,3.20
2017-09-15T16:26:22.620Z,5.90
2017-09-15T16:28:50.329Z,2.60
2017-09-15T16:31:17.924Z,2.33
2017-09-15T16:33:46.456Z,4.07
2017-09-15T16:36:14.057Z,2.60
2017-09-15T16:38:47.855Z,2.67
2017-09-15T16:41:22.395Z,5.73
2017-09-15T16:43:56.513Z,2.20
2017-09-15T16:46:29.622Z,5.90
2017-09-15T16:49:02.923Z,2.30
2017-09-15T16:51:30.543Z,3.27
2017-09-15T16:53:58.275Z,4.80
2017-09-15T16:56:26.032Z,3.50
2017-09-15T16:58:54.572Z,3.40
2017-09-15T17:01:23.020Z,3.30
2017-09-15T17:03:50.596Z,3.90
2017-09-15T17:06:18.204Z,3.30
2017-09-15T17:08:45.786Z,2.90
2017-09-15T17:11:13.452Z,4.50
2017-09-15T17:13:41.055Z,5.43
2017-09-15T17:16:09.671Z,2.80
2017-09-15T17:18:37.255Z,5.43
2017-09-15T17:21:04.852Z,5.60
2017-09-15T17:23:32.571Z,3.37
2017-09-15T17:26:00.252Z,4.03
2017-09-15T17:28:27.857Z,3.57
2017-09-15T17:30:56.198Z,3.80
2017-09-15T17:33:23.818Z,3.00
2017-09-15T17:35:51.437Z,9.23
2017-09-15T17:38:19.085Z,5.13
2017-09-15T17:40:46.610Z,6.80
2017-09-15T17:43:14.204Z,4.17
2017-09-15T17:45:41.814Z,9.03
2017-09-15T17:48:09.441Z,10.37
2017-09-15T17:50:37.127Z,4.50
2017-09-15T17:53:05.570Z,6.33
2017-09-15T17:55:33.154Z,4.03
2017-09-15T17:58:01.345Z,6.93
2017-09-15T18:00:29.702Z,9.40
2017-09-15T18:02:57.287Z,6.00
2017-09-15T18:05:26.569Z,6.47
2017-09-15T18:07:54.228Z,6.43
2017-09-15T18:10:22.671Z,4.70
2017-09-15T18:12:50.487Z,5.23
2017-09-15T18:15:18.870Z,7.00
2017-09-15T18:17:47.245Z,5.30
2017-09-15T18:20:15.608Z,4.30
2017-09-15T18:22:43.229Z,7.27
2017-09-15T18:25:10.800Z,6.70
2017-09-15T18:27:38.405Z,6.17
2017-09-15T18:30:06.023Z,5.10
2017-09-15T18:32:33.667Z,6.57
2017-09-15T18:35:01.256Z,5.37
2017-09-15T18:37:28.855Z,5.90
2017-09-15T18:39:57.239Z,4.93
2017-09-15T18:42:25.578Z,6.50
2017-09-15T18:44:53.197Z,4.93
2017-09-15T18:47:20.762Z,8.00
2017-09-15T18:49:48.388Z,18.20
2017-09-15T18:52:16.163Z,10.67
2017-09-15T18:54:44.588Z,14.03
2017-09-15T18:57:12.210Z,8.43
2017-09-15T18:59:40.516Z,9.30
2017-09-15T19:02:08.183Z,9.40
2017-09-15T19:04:35.819Z,11.43
2017-09-15T19:07:04.166Z,9.73
2017-09-15T19:09:31.774Z,10.40
2017-09-15T19:11:59.359Z,14.60
2017-09-15T19:14:27.050Z,11.53
2017-09-15T19:16:54.673Z,9.70
2017-09-15T19:19:22.285Z,13.03
2017-09-15T19:21:49.892Z,11.60
2017-09-15T19:24:17.528Z,11.00
2017-09-15T19:26:45.925Z,10.37
2017-09-15T19:29:13.508Z,11.93
2017-09-15T19:31:41.119Z,11.53
2017-09-15T19:34:08.733Z,15.67
2017-09-15T19:36:36.366Z,14.10
2017-09-15T19:39:04.697Z,12.37
2017-09-15T19:41:32.625Z,12.33
2017-09-15T19:44:00.256Z,20.00
2017-09-15T19:46:28.177Z,14.20
2017-09-15T19:48:55.940Z,14.13
2017-09-15T19:51:23.603Z,18.33
2017-09-15T19:53:51.178Z,15.23
2017-09-15T19:56:18.833Z,15.60
2017-09-15T19:58:46.410Z,11.20
2017-09-15T20:01:14.040Z,13.47
2017-09-15T20:03:41.753Z,13.50
2017-09-15T20:06:09.347Z,13.60
2017-09-15T20:08:37.008Z,14.40
2017-09-15T20:11:05.435Z,14.73
2017-09-15T20:13:33.042Z,12.80
2017-09-15T20:16:01.412Z,13.87
2017-09-15T20:18:29.781Z,13.47
2017-09-15T20:20:57.368Z,12.90
2017-09-15T20:23:25.741Z,16.03
2017-09-15T20:25:54.123Z,14.57
2017-09-15T20:28:22.486Z,13.90
2017-09-15T20:30:50.087Z,12.57
2017-09-15T20:33:17.658Z,14.67
2017-09-15T20:35:46.025Z,13.27
2017-09-15T20:38:13.595Z,14.73
2017-09-15T20:40:41.192Z,12.60
2017-09-15T20:43:08.792Z,14.00
2017-09-15T20:45:37.186Z,16.10
2017-09-15T20:48:04.795Z,11.70
2017-09-15T20:50:32.442Z,16.43
2017-09-15T20:53:00.050Z,14.63
2017-09-15T20:55:28.415Z,10.03
2017-09-15T20:57:56.250Z,13.50
2017-09-15T21:00:23.844Z,10.23
2017-09-15T21:02:51.489Z,12.80
2017-09-15T21:05:19.869Z,12.47
2017-09-15T21:07:47.523Z,13.50
2017-09-15T21:10:15.126Z,12.57
2017-09-15T21:12:43.515Z,16.13
2017-09-15T21:15:11.244Z,14.00
2017-09-15T21:17:38.821Z,14.30
2017-09-15T21:20:07.193Z,13.80
2017-09-15T21:22:35.579Z,12.40
2017-09-15T21:25:03.938Z,18.60
2017-09-15T21:27:31.545Z,12.50
2017-09-15T21:29:59.135Z,17.00
2017-09-15T21:32:26.735Z,14.77
2017-09-15T21:34:54.328Z,13.80
2017-09-15T21:37:21.971Z,21.63
2017-09-15T21:39:50.293Z,13.10
2017-09-15T21:42:17.919Z,14.43
2017-09-15T21:44:46.260Z,19.43
2017-09-15T21:47:13.912Z,14.73
2017-09-15T21:49:41.582Z,15.17
2017-09-15T21:52:09.170Z,14.07
2017-09-15T21:54:37.511Z,17.43
2017-09-15T21:57:05.091Z,16.23
2017-09-15T21:59:32.653Z,14.70
2017-09-15T22:02:00.256Z,17.73
2017-09-15T22:04:46.428Z,18.17
2017-09-15T22:07:14.042Z,16.87
2017-09-15T22:09:41.667Z,19.07
2017-09-15T22:12:10.017Z,19.93
2017-09-15T22:14:37.602Z,17.07
2017-09-15T22:17:05.990Z,16.27
2017-09-15T22:19:33.594Z,16.90
2017-09-15T22:22:01.175Z,18.20
2017-09-15T22:24:28.739Z,21.03
2017-09-15T22:26:56.326Z,14.10
2017-09-15T22:29:24.685Z,19.30
2017-09-15T22:31:52.250Z,20.17
2017-09-15T22:34:19.839Z,20.57
2017-09-15T22:36:47.424Z,23.40
2017-09-15T22:39:15.023Z,19.20
2017-09-15T22:41:42.687Z,16.33
2017-09-15T22:44:10.281Z,18.00
2017-09-15T22:46:37.860Z,18.97
2017-09-15T22:49:05.554Z,20.57
2017-09-15T22:51:33.166Z,17.60
2017-09-15T22:54:01.510Z,17.77
2017-09-15T22:56:29.091Z,17.07
2017-09-15T22:58:57.515Z,15.70
2017-09-15T23:01:25.311Z,15.83
2017-09-15T23:03:52.971Z,13.83
2017-09-15T23:06:20.541Z,16.73
2017-09-15T23:08:48.138Z,17.93
2017-09-15T23:11:16.497Z,13.37
2017-09-15T23:13:44.095Z,15.47
2017-09-15T23:16:11.972Z,14.93
2017-09-15T23:18:39.582Z,17.20
2017-09-15T23:21:07.247Z,17.87
2017-09-15T23:23:34.782Z,15.80
2017-09-15T23:26:02.385Z,16.40
2017-09-15T23:28:30.713Z,15.73
2017-09-15T23:30:58.319Z,14.77
2017-09-15T23:33:26.663Z,13.93
2017-09-15T23:35:54.226Z,23.87
2017-09-15T23:38:21.817Z,13.77
2017-09-15T23:40:49.411Z,13.73
2017-09-15T23:43:16.970Z,17.97
2017-09-15T23:45:44.530Z,17.70
2017-09-15T23:48:12.143Z,16.93
2017-09-15T23:50:39.703Z,15.73
2017-09-15T23:53:07.284Z,15.37
2017-09-15T23:55:34.857Z,15.50
2017-09-15T23:58:03.233Z,15.90
